Terminal Aerodrome Forecast
Issued by NWS Brownsville, TX

Current Version | Previous Version | Text Only | Print | Product List | Glossary Off
Versions: 1 2 3 4 5 6 7 8 9 10 11 12 13 14 15 16 17 18 19 20 21 22

281
FTUS44 KBRO 081124
TAFBRO
TAF
KBRO 081124Z 0812/0912 VRB03KT P6SM BKN250
     FM081700 03012G18KT P6SM BKN250
     FM090000 02005KT P6SM SKC=

USA.gov is the U.S. government's official web portal to all federal, state and local government web resources and services.